Time;durP1;ratioP1;P1;durP2;ratioP2;P2;SDS_P1;SDS_P2;PMS_P1;PMS_P2;Temp;Humidity;BMP_temperature;BMP_pressure;BME280_temperature;BME280_humidity;BME280_pressure;Samples;Min_cycle;Max_cycle;Signal;HPM_P1;HPM_P2
2024/01/29 00:00:16;;;;;;;;;;;19.50;41.20;;;;;;5068183;28;19920;-52
2024/01/29 00:02:43;;;;;;;;;;;19.50;41.10;;;;;;5069186;28;19921;-54
2024/01/29 00:05:09;;;;;;;;;;;19.50;41.10;;;;;;5075254;28;19924;-53
2024/01/29 00:07:36;;;;;;;;;;;19.50;41.10;;;;;;5053370;28;19921;-55
2024/01/29 00:10:05;;;;;;;;;;;19.50;41.10;;;;;;5056080;28;19974;-54
2024/01/29 00:12:32;;;;;;;;;;;19.50;41.10;;;;;;5063602;28;19927;-53
2024/01/29 00:14:59;;;;;;;;;;;19.50;41.10;;;;;;5071768;28;20007;-54
2024/01/29 00:17:26;;;;;;;;;;;19.50;41.10;;;;;;5091192;28;19931;-54
2024/01/29 00:19:52;;;;;;;;;;;19.50;41.10;;;;;;5074244;28;19920;-50
2024/01/29 00:22:19;;;;;;;;;;;19.50;41.10;;;;;;5072461;28;19924;-52
2024/01/29 00:24:46;;;;;;;;;;;19.50;41.10;;;;;;5075347;28;19924;-51
2024/01/29 00:27:14;;;;;;;;;;;19.50;41.10;;;;;;5064224;28;19920;-51
2024/01/29 00:29:41;;;;;;;;;;;19.50;41.10;;;;;;5072672;28;19932;-52
2024/01/29 00:32:08;;;;;;;;;;;19.50;41.20;;;;;;5064770;28;20033;-52
2024/01/29 00:34:35;;;;;;;;;;;19.50;41.70;;;;;;5076831;28;19924;-50
2024/01/29 00:37:03;;;;;;;;;;;19.50;41.10;;;;;;5074890;28;19920;-53
2024/01/29 00:39:30;;;;;;;;;;;19.50;41.10;;;;;;5074556;28;19920;-52
2024/01/29 00:41:57;;;;;;;;;;;19.50;41.10;;;;;;5057304;28;19986;-52
2024/01/29 00:44:25;;;;;;;;;;;19.50;41.20;;;;;;5072436;28;19928;-52
2024/01/29 00:46:51;;;;;;;;;;;19.50;41.20;;;;;;5056432;28;19921;-54
2024/01/29 00:49:18;;;;;;;;;;;19.50;41.10;;;;;;5056621;28;19921;-52
2024/01/29 00:51:45;;;;;;;;;;;19.50;41.20;;;;;;5075316;28;19924;-53
2024/01/29 00:54:11;;;;;;;;;;;19.50;41.10;;;;;;5068859;28;19928;-52
2024/01/29 00:56:38;;;;;;;;;;;19.50;41.10;;;;;;5069679;28;19927;-53
2024/01/29 00:59:05;;;;;;;;;;;19.50;41.20;;;;;;5065767;28;19920;-54
2024/01/29 01:01:33;;;;;;;;;;;19.50;41.20;;;;;;5081971;28;19920;-53
2024/01/29 01:04:00;;;;;;;;;;;19.50;41.10;;;;;;5040699;28;19921;-53
2024/01/29 01:06:26;;;;;;;;;;;19.50;41.20;;;;;;5062996;28;20011;-51
2024/01/29 01:08:53;;;;;;;;;;;19.50;41.10;;;;;;5077376;28;19927;-50
2024/01/29 01:11:20;;;;;;;;;;;19.50;41.10;;;;;;5075164;28;19924;-54
2024/01/29 01:13:49;;;;;;;;;;;19.50;41.10;;;;;;5075490;28;19920;-49
2024/01/29 01:16:16;;;;;;;;;;;19.50;41.10;;;;;;5065420;28;19920;-53
2024/01/29 01:18:44;;;;;;;;;;;19.50;41.10;;;;;;5092035;28;19920;-52
2024/01/29 01:21:11;;;;;;;;;;;19.50;41.10;;;;;;5078409;28;19998;-50
2024/01/29 01:23:38;;;;;;;;;;;19.50;41.10;;;;;;5097888;28;19920;-54
2024/01/29 01:26:05;;;;;;;;;;;19.50;41.10;;;;;;5094978;28;19920;-51
2024/01/29 01:28:32;;;;;;;;;;;19.50;41.10;;;;;;5088767;28;19924;-52
2024/01/29 01:30:58;;;;;;;;;;;19.50;41.10;;;;;;5095181;28;19927;-53
2024/01/29 01:33:25;;;;;;;;;;;19.40;41.00;;;;;;5072990;28;19925;-52
2024/01/29 01:35:54;;;;;;;;;;;19.50;41.10;;;;;;5059375;28;19970;-51
2024/01/29 01:38:20;;;;;;;;;;;19.50;41.10;;;;;;5079985;28;19997;-52
2024/01/29 01:40:47;;;;;;;;;;;19.50;41.10;;;;;;5065184;28;19928;-51
2024/01/29 01:43:15;;;;;;;;;;;19.40;40.90;;;;;;5093442;28;20270;-52
2024/01/29 01:45:42;;;;;;;;;;;19.50;41.00;;;;;;5073511;28;19924;-50
2024/01/29 01:48:08;;;;;;;;;;;19.40;40.90;;;;;;5078990;28;19927;-54
2024/01/29 01:50:35;;;;;;;;;;;19.50;41.00;;;;;;5059304;28;19977;-52
2024/01/29 01:53:03;;;;;;;;;;;19.50;41.00;;;;;;5073867;28;20450;-53
2024/01/29 01:55:30;;;;;;;;;;;19.40;40.90;;;;;;5090926;28;19921;-52
2024/01/29 01:57:57;;;;;;;;;;;19.40;40.90;;;;;;5058747;28;19921;-52
2024/01/29 02:00:24;;;;;;;;;;;19.40;41.50;;;;;;5055851;28;19977;-53
2024/01/29 02:02:50;;;;;;;;;;;19.50;40.90;;;;;;5061246;28;19977;-51
2024/01/29 02:05:17;;;;;;;;;;;19.50;40.90;;;;;;5076111;28;19928;-53
2024/01/29 02:07:44;;;;;;;;;;;19.40;40.90;;;;;;5058607;28;19977;-50
2024/01/29 02:10:14;;;;;;;;;;;19.50;41.00;;;;;;5063451;28;19920;-51
2024/01/29 02:12:41;;;;;;;;;;;19.40;40.90;;;;;;5078213;28;19920;-51
2024/01/29 02:15:08;;;;;;;;;;;19.40;40.90;;;;;;5078762;28;19923;-53
2024/01/29 02:17:35;;;;;;;;;;;19.40;40.90;;;;;;5062297;28;19943;-50
2024/01/29 02:20:02;;;;;;;;;;;19.50;41.50;;;;;;5077420;28;19921;-52
2024/01/29 02:22:29;;;;;;;;;;;19.50;41.00;;;;;;5070041;28;19924;-52
2024/01/29 02:24:57;;;;;;;;;;;19.40;40.90;;;;;;5066734;28;19920;-54
2024/01/29 02:27:23;;;;;;;;;;;19.40;40.90;;;;;;5068133;28;19920;-53
2024/01/29 02:29:50;;;;;;;;;;;19.50;41.00;;;;;;5054275;28;19970;-54
2024/01/29 02:32:16;;;;;;;;;;;19.40;40.90;;;;;;5079428;28;19971;-52
2024/01/29 02:34:43;;;;;;;;;;;19.40;40.90;;;;;;5079339;28;19920;-52
2024/01/29 02:37:10;;;;;;;;;;;19.50;41.00;;;;;;5079106;28;19920;-49
2024/01/29 02:39:37;;;;;;;;;;;19.40;40.90;;;;;;5063851;28;19986;-53
2024/01/29 02:42:05;;;;;;;;;;;19.50;41.00;;;;;;5057671;28;19973;-48
2024/01/29 02:44:32;;;;;;;;;;;19.40;40.90;;;;;;5071789;28;19924;-52
2024/01/29 02:46:59;;;;;;;;;;;19.40;40.90;;;;;;5094308;28;19973;-52
2024/01/29 02:49:25;;;;;;;;;;;19.40;40.90;;;;;;5077884;28;19920;-54
2024/01/29 02:51:52;;;;;;;;;;;19.40;40.90;;;;;;5073486;28;19932;-49
2024/01/29 02:54:19;;;;;;;;;;;19.50;41.00;;;;;;5055254;28;19920;-52
2024/01/29 02:56:46;;;;;;;;;;;19.40;40.90;;;;;;5081436;28;19928;-52
2024/01/29 02:59:14;;;;;;;;;;;19.50;41.50;;;;;;5056734;28;19931;-53
2024/01/29 03:01:40;;;;;;;;;;;19.40;40.90;;;;;;5084957;28;20304;-53
2024/01/29 03:04:07;;;;;;;;;;;19.50;40.90;;;;;;5073608;28;19921;-53
2024/01/29 03:06:34;;;;;;;;;;;19.50;40.90;;;;;;5055481;28;19920;-52
2024/01/29 03:09:01;;;;;;;;;;;19.40;40.90;;;;;;5075716;28;19924;-50
2024/01/29 03:11:28;;;;;;;;;;;19.40;40.80;;;;;;5075377;28;19927;-51
2024/01/29 03:13:55;;;;;;;;;;;19.50;40.90;;;;;;5070249;28;19920;-50
2024/01/29 03:16:23;;;;;;;;;;;19.40;40.80;;;;;;5061005;28;19985;-54
2024/01/29 03:18:49;;;;;;;;;;;19.40;40.80;;;;;;5067278;28;19928;-51
2024/01/29 03:21:16;;;;;;;;;;;19.40;40.80;;;;;;5059897;28;19921;-53
2024/01/29 03:23:43;;;;;;;;;;;19.40;40.80;;;;;;5063847;28;19924;-49
2024/01/29 03:26:09;;;;;;;;;;;19.40;40.80;;;;;;5057900;28;19971;-50
2024/01/29 03:28:36;;;;;;;;;;;19.40;40.80;;;;;;5091616;28;19920;-52
2024/01/29 03:31:03;;;;;;;;;;;19.50;40.80;;;;;;5069141;28;20086;-52
2024/01/29 03:33:31;;;;;;;;;;;19.40;40.70;;;;;;5095375;28;19924;-49
2024/01/29 03:35:57;;;;;;;;;;;19.40;40.70;;;;;;5059024;28;19921;-49
2024/01/29 03:38:24;;;;;;;;;;;19.40;40.70;;;;;;5075774;28;19970;-54
2024/01/29 03:40:51;;;;;;;;;;;19.40;40.70;;;;;;5076120;28;19924;-50
2024/01/29 03:43:19;;;;;;;;;;;19.40;40.70;;;;;;5075386;28;19935;-50
2024/01/29 03:45:46;;;;;;;;;;;19.40;40.60;;;;;;5057485;28;19931;-53
2024/01/29 03:48:13;;;;;;;;;;;19.40;40.60;;;;;;5056809;28;19920;-53
2024/01/29 03:50:41;;;;;;;;;;;19.40;40.60;;;;;;5061558;28;19920;-52
2024/01/29 03:53:07;;;;;;;;;;;19.40;40.60;;;;;;5077356;28;19965;-51
2024/01/29 03:55:34;;;;;;;;;;;19.40;40.50;;;;;;5074896;28;19997;-53
2024/01/29 03:58:01;;;;;;;;;;;19.40;40.70;;;;;;5075416;28;19920;-52
2024/01/29 04:00:29;;;;;;;;;;;19.40;40.50;;;;;;5089499;28;19974;-53
2024/01/29 04:02:56;;;;;;;;;;;19.40;40.50;;;;;;5069187;28;20015;-49
2024/01/29 04:05:23;;;;;;;;;;;19.40;40.50;;;;;;5054949;28;20389;-54
2024/01/29 04:07:51;;;;;;;;;;;19.40;40.50;;;;;;5057617;28;19924;-53
2024/01/29 04:10:18;;;;;;;;;;;19.40;40.50;;;;;;5054961;28;19920;-51
2024/01/29 04:12:44;;;;;;;;;;;19.40;40.40;;;;;;5079863;28;20167;-50
2024/01/29 04:15:11;;;;;;;;;;;19.40;40.50;;;;;;5065993;28;19921;-52
2024/01/29 04:17:38;;;;;;;;;;;19.40;40.40;;;;;;5072278;28;19920;-54
2024/01/29 04:20:05;;;;;;;;;;;19.40;40.40;;;;;;5057533;28;19927;-51
2024/01/29 04:22:33;;;;;;;;;;;19.40;40.50;;;;;;5055161;28;19964;-54
2024/01/29 04:25:00;;;;;;;;;;;19.40;40.50;;;;;;5057714;28;20019;-53
2024/01/29 04:27:27;;;;;;;;;;;19.40;40.50;;;;;;5083371;28;19923;-49
2024/01/29 04:29:53;;;;;;;;;;;19.40;40.60;;;;;;5094662;28;19924;-51
2024/01/29 04:32:20;;;;;;;;;;;19.40;40.60;;;;;;5054410;28;19925;-49
2024/01/29 04:34:47;;;;;;;;;;;19.40;40.60;;;;;;5049360;28;19924;-52
2024/01/29 04:37:14;;;;;;;;;;;19.40;40.60;;;;;;5060745;28;19932;-52
2024/01/29 04:39:41;;;;;;;;;;;19.40;40.50;;;;;;5075821;28;19920;-51
2024/01/29 04:42:09;;;;;;;;;;;19.40;40.50;;;;;;5050135;28;19920;-51
2024/01/29 04:44:36;;;;;;;;;;;19.40;40.50;;;;;;5080589;28;19928;-52
2024/01/29 04:47:03;;;;;;;;;;;19.40;40.50;;;;;;5073315;28;19924;-55
2024/01/29 04:49:30;;;;;;;;;;;19.40;40.50;;;;;;5086855;28;19931;-53
2024/01/29 04:51:56;;;;;;;;;;;19.40;40.50;;;;;;5081879;28;19966;-56
2024/01/29 04:54:23;;;;;;;;;;;19.40;40.50;;;;;;5068728;28;19942;-56
2024/01/29 04:56:50;;;;;;;;;;;19.40;40.50;;;;;;5081841;28;19924;-54
2024/01/29 04:59:18;;;;;;;;;;;19.40;40.50;;;;;;5066287;28;19920;-54
2024/01/29 05:01:45;;;;;;;;;;;19.40;40.50;;;;;;5066626;28;19924;-49
2024/01/29 05:04:12;;;;;;;;;;;19.40;40.40;;;;;;5068471;28;19977;-51
2024/01/29 05:06:39;;;;;;;;;;;19.40;40.40;;;;;;5085248;28;19927;-54
2024/01/29 05:09:08;;;;;;;;;;;19.40;40.40;;;;;;5085380;28;20407;-55
2024/01/29 05:11:37;;;;;;;;;;;19.40;40.40;;;;;;5081205;28;19973;-55
2024/01/29 05:14:03;;;;;;;;;;;19.40;40.40;;;;;;5079559;28;19932;-54
2024/01/29 05:16:32;;;;;;;;;;;19.40;40.40;;;;;;5059467;28;20158;-51
2024/01/29 05:18:59;;;;;;;;;;;19.40;41.00;;;;;;5079988;28;19920;-57
2024/01/29 05:21:27;;;;;;;;;;;19.40;40.40;;;;;;5084920;28;19920;-56
2024/01/29 05:23:53;;;;;;;;;;;19.40;40.40;;;;;;5066521;28;19962;-52
2024/01/29 05:26:20;;;;;;;;;;;19.40;40.30;;;;;;5085075;28;19950;-52
2024/01/29 05:28:47;;;;;;;;;;;19.40;40.30;;;;;;5065535;28;20353;-56
2024/01/29 05:31:13;;;;;;;;;;;19.40;40.30;;;;;;5067445;28;19932;-55
2024/01/29 05:33:42;;;;;;;;;;;19.40;40.30;;;;;;5081921;28;19920;-52
2024/01/29 05:36:08;;;;;;;;;;;19.40;40.30;;;;;;5063822;28;19939;-55
2024/01/29 05:38:35;;;;;;;;;;;19.40;40.30;;;;;;5084485;28;19927;-53
2024/01/29 05:41:02;;;;;;;;;;;19.40;40.30;;;;;;5081623;28;19927;-53
2024/01/29 05:43:29;;;;;;;;;;;19.40;40.30;;;;;;5084411;28;19924;-54
2024/01/29 05:45:55;;;;;;;;;;;19.40;40.20;;;;;;5064059;28;20269;-56
2024/01/29 05:48:22;;;;;;;;;;;19.40;40.20;;;;;;5067605;28;19920;-52
2024/01/29 05:50:50;;;;;;;;;;;19.40;40.20;;;;;;5064444;28;19924;-52
2024/01/29 05:53:20;;;;;;;;;;;19.40;40.20;;;;;;5080624;28;20066;-52
2024/01/29 05:55:46;;;;;;;;;;;19.40;40.20;;;;;;5064526;28;19920;-55
2024/01/29 05:58:14;;;;;;;;;;;19.40;40.20;;;;;;5068767;28;19920;-52
2024/01/29 06:00:41;;;;;;;;;;;19.40;40.10;;;;;;5059169;28;19921;-53
2024/01/29 06:03:07;;;;;;;;;;;19.30;40.00;;;;;;5058835;28;19921;-54
2024/01/29 06:05:34;;;;;;;;;;;19.40;40.10;;;;;;5065843;28;19927;-54
2024/01/29 06:08:02;;;;;;;;;;;19.40;40.10;;;;;;5063253;28;19970;-53
2024/01/29 06:10:29;;;;;;;;;;;19.40;40.10;;;;;;5083994;28;19924;-56
2024/01/29 06:12:56;;;;;;;;;;;19.40;40.10;;;;;;5067924;28;19942;-47
2024/01/29 06:15:23;;;;;;;;;;;19.30;40.00;;;;;;5049312;28;19924;-56
2024/01/29 06:17:49;;;;;;;;;;;19.30;40.00;;;;;;5082244;28;19935;-55
2024/01/29 06:20:16;;;;;;;;;;;19.40;40.10;;;;;;5060691;28;19924;-52
2024/01/29 06:22:49;;;;;;;;;;;19.30;40.00;;;;;;5062402;28;19928;-54
2024/01/29 06:25:19;;;;;;;;;;;19.40;40.10;;;;;;5083160;28;19920;-55
2024/01/29 06:27:46;;;;;;;;;;;19.30;40.00;;;;;;5077079;28;20014;-55
2024/01/29 06:30:14;;;;;;;;;;;19.40;40.10;;;;;;5058743;28;19924;-51
2024/01/29 06:32:41;;;;;;;;;;;19.30;40.00;;;;;;5056303;28;19921;-55
2024/01/29 06:35:08;;;;;;;;;;;19.30;40.00;;;;;;5063994;28;19925;-55
2024/01/29 06:37:35;;;;;;;;;;;19.40;40.10;;;;;;5057567;28;19936;-52
2024/01/29 06:40:02;;;;;;;;;;;19.40;40.10;;;;;;5077454;28;19988;-53
2024/01/29 06:42:30;;;;;;;;;;;19.30;40.00;;;;;;5076265;28;19924;-52
2024/01/29 06:44:57;;;;;;;;;;;19.40;40.10;;;;;;5078881;28;19954;-54
2024/01/29 06:47:23;;;;;;;;;;;19.40;40.10;;;;;;5061872;28;19920;-53
2024/01/29 06:49:50;;;;;;;;;;;19.30;40.00;;;;;;5061247;28;19924;-53
2024/01/29 06:52:17;;;;;;;;;;;19.30;40.00;;;;;;5064266;28;19924;-54
2024/01/29 06:54:43;;;;;;;;;;;19.40;40.10;;;;;;5060066;28;19924;-51
2024/01/29 06:57:10;;;;;;;;;;;19.40;40.10;;;;;;5076787;28;19927;-48
2024/01/29 06:59:38;;;;;;;;;;;19.40;40.10;;;;;;5061160;28;19966;-50
2024/01/29 07:02:06;;;;;;;;;;;19.40;40.10;;;;;;5083103;28;20023;-53
2024/01/29 07:04:32;;;;;;;;;;;19.30;40.00;;;;;;5064588;28;20011;-52
2024/01/29 07:06:59;;;;;;;;;;;19.30;40.00;;;;;;5063600;28;19925;-51
2024/01/29 07:09:26;;;;;;;;;;;19.40;40.10;;;;;;5066821;28;19928;-56
2024/01/29 07:11:52;;;;;;;;;;;19.40;40.10;;;;;;5058799;28;19946;-53
2024/01/29 07:14:19;;;;;;;;;;;19.30;40.00;;;;;;5062888;28;19920;-52
2024/01/29 07:16:47;;;;;;;;;;;19.40;40.10;;;;;;5075649;28;20109;-54
2024/01/29 07:19:14;;;;;;;;;;;19.30;40.00;;;;;;5083078;28;19920;-52
2024/01/29 07:21:41;;;;;;;;;;;19.40;40.10;;;;;;5080566;28;19931;-56
2024/01/29 07:24:08;;;;;;;;;;;19.40;40.10;;;;;;5062751;28;19931;-54
2024/01/29 07:26:35;;;;;;;;;;;19.40;40.10;;;;;;5060792;28;19921;-51
2024/01/29 07:29:01;;;;;;;;;;;19.40;40.10;;;;;;5077700;28;19956;-51
2024/01/29 07:31:28;;;;;;;;;;;19.40;40.10;;;;;;5057671;28;19920;-49
2024/01/29 07:33:56;;;;;;;;;;;19.40;36.30;;;;;;5055855;28;19920;-47
2024/01/29 07:36:23;;;;;;;;;;;19.20;29.20;;;;;;5075099;28;19983;-47
2024/01/29 07:38:50;;;;;;;;;;;19.00;27.30;;;;;;5055952;28;19927;-47
2024/01/29 07:41:17;;;;;;;;;;;18.80;26.90;;;;;;5057299;28;19924;-46
2024/01/29 07:43:43;;;;;;;;;;;18.50;26.80;;;;;;5057950;28;19920;-49
2024/01/29 07:46:11;;;;;;;;;;;18.30;28.70;;;;;;5071913;28;19925;-49
2024/01/29 07:48:37;;;;;;;;;;;18.20;30.10;;;;;;5054761;28;20018;-52
2024/01/29 07:51:06;;;;;;;;;;;18.10;31.20;;;;;;5070978;28;19993;-52
2024/01/29 07:53:32;;;;;;;;;;;18.10;32.20;;;;;;5080048;28;19927;-53
2024/01/29 07:55:59;;;;;;;;;;;18.20;33.00;;;;;;5094927;28;19920;-51
2024/01/29 07:58:26;;;;;;;;;;;18.20;33.70;;;;;;5077163;28;19927;-51
2024/01/29 08:00:53;;;;;;;;;;;18.30;34.30;;;;;;5060289;28;19990;-54
2024/01/29 08:03:19;;;;;;;;;;;18.30;34.80;;;;;;5078794;28;19927;-50
2024/01/29 08:05:46;;;;;;;;;;;18.40;35.20;;;;;;5073950;28;20250;-49
2024/01/29 08:08:14;;;;;;;;;;;18.50;35.60;;;;;;5062014;28;19920;-51
2024/01/29 08:10:41;;;;;;;;;;;18.50;35.70;;;;;;5062285;28;19921;-55
2024/01/29 08:13:08;;;;;;;;;;;18.60;36.00;;;;;;5075694;28;20005;-49
2024/01/29 08:15:35;;;;;;;;;;;18.60;36.10;;;;;;5080912;28;19927;-50
2024/01/29 08:18:02;;;;;;;;;;;18.70;36.40;;;;;;5066923;28;19932;-47
2024/01/29 08:20:28;;;;;;;;;;;18.70;36.60;;;;;;5066476;28;19920;-49
2024/01/29 08:22:55;;;;;;;;;;;18.70;36.70;;;;;;5069482;28;19974;-49
2024/01/29 08:25:24;;;;;;;;;;;18.80;37.00;;;;;;5063663;28;20373;-49
2024/01/29 08:27:51;;;;;;;;;;;18.80;37.10;;;;;;5063608;28;19920;-51
2024/01/29 08:30:18;;;;;;;;;;;18.80;37.20;;;;;;5066217;28;19924;-50
2024/01/29 08:32:45;;;;;;;;;;;18.90;37.50;;;;;;5101540;28;19966;-49
2024/01/29 08:35:13;;;;;;;;;;;18.90;37.60;;;;;;5101208;28;19920;-47
2024/01/29 08:37:41;;;;;;;;;;;18.90;37.70;;;;;;5101417;28;19920;-51
2024/01/29 08:40:08;;;;;;;;;;;19.00;37.80;;;;;;5043441;28;19947;-54
2024/01/29 08:42:36;;;;;;;;;;;19.00;37.90;;;;;;5047582;28;19968;-53
2024/01/29 08:45:03;;;;;;;;;;;19.00;38.00;;;;;;5078450;28;19982;-56
2024/01/29 08:47:30;;;;;;;;;;;19.10;38.10;;;;;;5064861;28;19924;-53
2024/01/29 08:49:56;;;;;;;;;;;19.10;38.20;;;;;;5086232;28;19935;-57
2024/01/29 08:52:23;;;;;;;;;;;19.10;38.30;;;;;;5068614;28;19924;-58
2024/01/29 08:54:50;;;;;;;;;;;19.10;38.30;;;;;;5068601;28;19925;-56
2024/01/29 08:57:17;;;;;;;;;;;19.20;38.50;;;;;;5080307;28;20026;-54
2024/01/29 08:59:45;;;;;;;;;;;19.10;38.40;;;;;;5084053;28;19920;-56
2024/01/29 09:02:12;;;;;;;;;;;19.20;38.60;;;;;;5081564;28;19924;-51
2024/01/29 09:04:39;;;;;;;;;;;19.20;38.70;;;;;;5101250;28;19981;-55
2024/01/29 09:07:06;;;;;;;;;;;19.20;38.70;;;;;;5077989;28;19928;-52
2024/01/29 09:09:32;;;;;;;;;;;19.20;38.70;;;;;;5060714;28;19921;-51
2024/01/29 09:11:59;;;;;;;;;;;19.30;38.80;;;;;;5044844;28;19952;-54
2024/01/29 09:14:27;;;;;;;;;;;19.30;38.90;;;;;;5058535;28;19936;-53
2024/01/29 09:16:55;;;;;;;;;;;19.30;38.90;;;;;;5068805;28;19932;-52
2024/01/29 09:19:23;;;;;;;;;;;19.30;39.00;;;;;;5077089;28;19924;-51
2024/01/29 09:21:49;;;;;;;;;;;19.30;39.00;;;;;;5074062;28;19987;-53
2024/01/29 09:24:17;;;;;;;;;;;19.30;39.00;;;;;;5066848;28;19928;-52
2024/01/29 09:26:43;;;;;;;;;;;19.40;39.10;;;;;;5062053;28;20167;-54
2024/01/29 09:29:10;;;;;;;;;;;19.30;39.00;;;;;;5072507;28;19947;-53
2024/01/29 09:31:37;;;;;;;;;;;19.30;39.10;;;;;;5076103;28;19920;-53
2024/01/29 09:34:05;;;;;;;;;;;19.40;39.20;;;;;;5094842;28;19920;-50
2024/01/29 09:36:32;;;;;;;;;;;19.40;39.20;;;;;;5066380;28;20358;-53
2024/01/29 09:38:58;;;;;;;;;;;19.40;39.20;;;;;;5063406;28;20100;-47
2024/01/29 09:41:25;;;;;;;;;;;19.40;39.30;;;;;;5057045;28;19921;-49
2024/01/29 09:43:52;;;;;;;;;;;19.40;39.30;;;;;;5070096;28;19920;-47
2024/01/29 09:46:19;;;;;;;;;;;19.40;39.20;;;;;;5055379;28;19928;-51
2024/01/29 09:48:46;;;;;;;;;;;19.40;38.90;;;;;;5074345;28;19974;-47
2024/01/29 09:51:16;;;;;;;;;;;19.40;38.90;;;;;;5088598;28;19934;-46
2024/01/29 09:53:44;;;;;;;;;;;19.40;38.70;;;;;;5060235;28;19920;-44
2024/01/29 09:56:10;;;;;;;;;;;19.30;38.40;;;;;;5056199;28;20027;-46
2024/01/29 09:58:37;;;;;;;;;;;19.30;38.30;;;;;;5058237;28;19973;-50
2024/01/29 10:01:04;;;;;;;;;;;19.40;38.30;;;;;;5075191;28;19974;-46
2024/01/29 10:03:31;;;;;;;;;;;19.30;38.10;;;;;;5076919;28;19925;-46
2024/01/29 10:05:58;;;;;;;;;;;19.30;38.00;;;;;;5073812;28;19928;-46
2024/01/29 10:08:26;;;;;;;;;;;19.30;37.90;;;;;;5075892;28;19920;-48
2024/01/29 10:10:53;;;;;;;;;;;19.30;37.90;;;;;;5092230;28;19920;-46
2024/01/29 10:13:20;;;;;;;;;;;19.30;37.80;;;;;;5097093;28;19920;-52
2024/01/29 10:15:47;;;;;;;;;;;19.30;37.80;;;;;;5084449;28;19920;-49
2024/01/29 10:18:15;;;;;;;;;;;19.30;37.70;;;;;;5068675;28;19928;-49
2024/01/29 10:20:41;;;;;;;;;;;19.30;37.70;;;;;;5049102;28;19927;-47
2024/01/29 10:23:08;;;;;;;;;;;19.30;37.70;;;;;;5055670;28;19970;-54
2024/01/29 10:25:38;;;;;;;;;;;19.30;37.70;;;;;;5057146;28;20007;-47
2024/01/29 10:28:06;;;;;;;;;;;19.30;37.70;;;;;;5076299;28;20303;-48
2024/01/29 10:30:33;;;;;;;;;;;19.30;37.70;;;;;;5083710;28;19920;-45
2024/01/29 10:33:00;;;;;;;;;;;19.30;37.70;;;;;;5057605;28;20421;-47
2024/01/29 10:35:26;;;;;;;;;;;19.30;37.70;;;;;;5061310;28;19920;-46
2024/01/29 10:37:53;;;;;;;;;;;19.30;37.70;;;;;;5058568;28;19920;-48
2024/01/29 10:40:20;;;;;;;;;;;19.30;37.70;;;;;;5066290;28;19932;-49
2024/01/29 10:42:48;;;;;;;;;;;19.30;37.70;;;;;;5074758;28;19946;-47
2024/01/29 10:45:15;;;;;;;;;;;19.30;37.70;;;;;;5059034;28;19981;-47
2024/01/29 10:47:45;;;;;;;;;;;19.30;37.70;;;;;;5076275;28;19927;-51
2024/01/29 10:50:16;;;;;;;;;;;19.30;37.70;;;;;;5078848;28;19932;-47
2024/01/29 10:52:43;;;;;;;;;;;19.30;37.70;;;;;;5053539;28;20360;-51
2024/01/29 10:55:10;;;;;;;;;;;19.30;37.70;;;;;;5080397;28;19931;-49
2024/01/29 10:57:37;;;;;;;;;;;19.30;37.70;;;;;;5077389;28;20003;-49
2024/01/29 11:00:08;;;;;;;;;;;19.30;37.70;;;;;;5061929;28;19927;-47
2024/01/29 11:02:37;;;;;;;;;;;19.30;37.70;;;;;;5075681;28;19961;-49
2024/01/29 11:05:04;;;;;;;;;;;19.30;37.70;;;;;;5068967;28;20158;-48
2024/01/29 11:07:31;;;;;;;;;;;19.30;37.70;;;;;;5077913;28;19924;-49
2024/01/29 11:09:58;;;;;;;;;;;19.30;37.70;;;;;;5061099;28;19927;-49
2024/01/29 11:12:25;;;;;;;;;;;19.30;37.70;;;;;;5066687;28;19924;-47
2024/01/29 11:14:59;;;;;;;;;;;19.30;37.70;;;;;;5086554;28;19920;-50
2024/01/29 11:17:27;;;;;;;;;;;19.30;37.80;;;;;;5056355;28;19920;-53
2024/01/29 11:19:54;;;;;;;;;;;19.30;38.00;;;;;;5074241;28;19942;-54
2024/01/29 11:22:21;;;;;;;;;;;19.40;38.20;;;;;;5075203;28;19927;-50
2024/01/29 11:24:48;;;;;;;;;;;19.40;38.30;;;;;;5083510;28;19974;-50
2024/01/29 11:27:14;;;;;;;;;;;19.40;38.30;;;;;;5057181;28;19925;-55
2024/01/29 11:29:44;;;;;;;;;;;19.30;38.30;;;;;;5059041;28;19943;-54
2024/01/29 11:32:13;;;;;;;;;;;19.40;38.50;;;;;;5058615;28;19921;-55
2024/01/29 11:34:42;;;;;;;;;;;19.40;38.50;;;;;;5065587;28;19924;-57
2024/01/29 11:37:08;;;;;;;;;;;19.40;38.50;;;;;;5075849;28;19920;-55
2024/01/29 11:39:43;;;;;;;;;;;19.40;38.60;;;;;;5059465;28;19920;-56
2024/01/29 11:42:10;;;;;;;;;;;19.40;38.70;;;;;;5063500;28;20023;-55
2024/01/29 11:44:37;;;;;;;;;;;19.40;38.70;;;;;;5065603;28;20255;-54
2024/01/29 11:47:08;;;;;;;;;;;19.50;38.80;;;;;;5063534;28;19926;-54
2024/01/29 11:49:35;;;;;;;;;;;19.50;38.80;;;;;;5082321;28;19943;-54
2024/01/29 11:52:03;;;;;;;;;;;19.50;38.90;;;;;;5065526;28;19966;-57
2024/01/29 11:54:30;;;;;;;;;;;19.50;38.90;;;;;;5059702;28;19924;-55
2024/01/29 11:56:57;;;;;;;;;;;19.50;38.90;;;;;;5064370;28;19925;-55
2024/01/29 11:59:25;;;;;;;;;;;19.50;38.90;;;;;;5068582;28;19928;-54
2024/01/29 12:01:53;;;;;;;;;;;19.50;39.60;;;;;;5073569;28;20024;-55
2024/01/29 12:04:20;;;;;;;;;;;19.60;39.10;;;;;;5054787;28;19960;-55
2024/01/29 12:06:46;;;;;;;;;;;19.60;39.20;;;;;;5077329;28;19920;-54
2024/01/29 12:09:14;;;;;;;;;;;19.60;39.20;;;;;;5077677;28;19973;-55
2024/01/29 12:11:41;;;;;;;;;;;19.60;39.20;;;;;;5077450;28;19924;-54
2024/01/29 12:14:08;;;;;;;;;;;19.60;39.20;;;;;;5051606;28;19920;-55
2024/01/29 12:16:35;;;;;;;;;;;19.60;39.30;;;;;;5057038;28;19927;-54
2024/01/29 12:19:02;;;;;;;;;;;19.60;39.30;;;;;;5068183;28;19958;-54
2024/01/29 12:21:28;;;;;;;;;;;19.60;39.30;;;;;;5065076;28;19924;-55
2024/01/29 12:23:56;;;;;;;;;;;19.60;39.30;;;;;;5037012;28;19971;-56
2024/01/29 12:26:28;;;;;;;;;;;19.70;39.40;;;;;;5073770;28;19920;-55
2024/01/29 12:28:55;;;;;;;;;;;19.60;39.30;;;;;;5067210;28;19920;-55
2024/01/29 12:31:23;;;;;;;;;;;19.70;39.40;;;;;;5076143;28;19920;-55
2024/01/29 12:33:50;;;;;;;;;;;19.70;39.50;;;;;;5073917;28;19924;-57
2024/01/29 12:36:17;;;;;;;;;;;19.70;39.50;;;;;;5089184;28;19980;-55
2024/01/29 12:38:44;;;;;;;;;;;19.70;39.50;;;;;;5055138;28;20069;-54
2024/01/29 12:41:11;;;;;;;;;;;19.70;39.60;;;;;;5056379;28;19974;-59
2024/01/29 12:43:39;;;;;;;;;;;19.70;39.60;;;;;;5059146;28;19973;-55
2024/01/29 12:46:06;;;;;;;;;;;19.70;39.60;;;;;;5082968;28;19920;-51
2024/01/29 12:48:33;;;;;;;;;;;19.70;39.70;;;;;;5066435;28;19920;-55
2024/01/29 12:50:59;;;;;;;;;;;19.80;39.80;;;;;;5074958;28;19920;-54
2024/01/29 12:53:26;;;;;;;;;;;19.70;39.80;;;;;;5072533;28;19924;-55
2024/01/29 12:55:53;;;;;;;;;;;19.70;39.80;;;;;;5085031;28;19955;-56
2024/01/29 12:58:19;;;;;;;;;;;19.80;40.00;;;;;;5076316;28;19966;-54
2024/01/29 13:00:48;;;;;;;;;;;19.80;40.00;;;;;;5084329;28;19981;-53
2024/01/29 13:03:15;;;;;;;;;;;19.80;40.10;;;;;;5063389;28;19927;-53
2024/01/29 13:05:42;;;;;;;;;;;19.80;40.10;;;;;;5065249;28;19927;-54
2024/01/29 13:08:09;;;;;;;;;;;19.80;40.10;;;;;;5066589;28;19920;-54
2024/01/29 13:10:37;;;;;;;;;;;19.80;40.20;;;;;;5058010;28;19921;-51
2024/01/29 13:13:04;;;;;;;;;;;19.80;40.20;;;;;;5074983;28;19924;-53
2024/01/29 13:15:31;;;;;;;;;;;19.90;40.30;;;;;;5077614;28;20019;-50
2024/01/29 13:17:59;;;;;;;;;;;19.80;40.30;;;;;;5067892;28;19981;-51
2024/01/29 13:20:26;;;;;;;;;;;19.80;40.30;;;;;;5084636;28;19924;-50
2024/01/29 13:22:53;;;;;;;;;;;19.80;40.30;;;;;;5063543;28;19979;-51
2024/01/29 13:25:20;;;;;;;;;;;19.80;40.30;;;;;;5077299;28;19942;-51
2024/01/29 13:27:47;;;;;;;;;;;19.90;41.00;;;;;;5057122;28;19921;-53
2024/01/29 13:30:14;;;;;;;;;;;19.90;40.50;;;;;;5076518;28;19921;-57
2024/01/29 13:32:41;;;;;;;;;;;19.90;40.50;;;;;;5069308;28;19954;-57
2024/01/29 13:35:09;;;;;;;;;;;19.90;40.60;;;;;;5070316;28;19920;-55
2024/01/29 13:37:36;;;;;;;;;;;19.90;40.60;;;;;;5070877;28;19921;-55
2024/01/29 13:40:04;;;;;;;;;;;19.90;40.60;;;;;;5083091;28;19966;-55
2024/01/29 13:42:32;;;;;;;;;;;19.90;40.60;;;;;;5097812;28;19924;-55
2024/01/29 13:44:59;;;;;;;;;;;19.90;40.60;;;;;;5061682;28;19920;-53
2024/01/29 13:47:27;;;;;;;;;;;19.90;40.60;;;;;;5064832;28;19966;-57
2024/01/29 13:49:54;;;;;;;;;;;19.90;40.70;;;;;;5063595;28;19920;-57
2024/01/29 13:52:22;;;;;;;;;;;19.90;40.70;;;;;;5070804;28;19942;-55
2024/01/29 13:54:49;;;;;;;;;;;19.90;40.70;;;;;;5076562;28;19920;-54
2024/01/29 13:57:16;;;;;;;;;;;19.90;40.70;;;;;;5092738;28;19920;-54
2024/01/29 13:59:42;;;;;;;;;;;19.90;40.70;;;;;;5079155;28;19926;-56
2024/01/29 14:02:09;;;;;;;;;;;19.90;40.70;;;;;;5058034;28;19920;-54
2024/01/29 14:04:36;;;;;;;;;;;19.90;40.80;;;;;;5059327;28;19920;-55
2024/01/29 14:07:03;;;;;;;;;;;19.90;40.80;;;;;;5056671;28;19927;-56
2024/01/29 14:09:31;;;;;;;;;;;19.90;40.80;;;;;;5084751;28;19920;-56
2024/01/29 14:11:58;;;;;;;;;;;20.00;40.90;;;;;;5084438;28;19928;-52
2024/01/29 14:14:25;;;;;;;;;;;19.90;40.90;;;;;;5068795;28;19955;-54